Time;durP1;ratioP1;P1;durP2;ratioP2;P2;SDS_P1;SDS_P2;PMS_P1;PMS_P2;Temp;Humidity;BMP_temperature;BMP_pressure;BME280_temperature;BME280_humidity;BME280_pressure;Samples;Min_cycle;Max_cycle;Signal;HPM_P1;HPM_P2
2023/09/04 00:01:48;;;;;;;6.28;4.00;;;;;;;22.95;100.00;101218.44;5136166;27;20074;-79
2023/09/04 00:04:14;;;;;;;4.72;3.58;;;;;;;22.24;100.00;101173.31;5118225;27;20482;-79
2023/09/04 00:06:39;;;;;;;4.60;4.10;;;;;;;22.64;100.00;101280.81;5136801;27;20092;-80
2023/09/04 00:09:05;;;;;;;5.72;4.18;;;;;;;22.56;100.00;101320.06;5135661;27;20118;-77
2023/09/04 00:11:30;;;;;;;5.00;4.05;;;;;;;23.02;100.00;101388.38;5135963;27;20111;-75
2023/09/04 00:13:56;;;;;;;5.47;4.03;;;;;;;22.72;100.00;101331.28;5136216;27;20051;-79
2023/09/04 00:16:21;;;;;;;4.78;4.10;;;;;;;23.04;100.00;101404.72;5136017;27;20027;-80
2023/09/04 00:18:46;;;;;;;10.95;4.03;;;;;;;22.63;100.00;101370.72;5135901;27;20050;-78
2023/09/04 00:21:13;;;;;;;7.47;3.80;;;;;;;22.73;100.00;101434.13;5135737;27;20023;-78
2023/09/04 00:23:38;;;;;;;7.57;4.00;;;;;;;22.77;100.00;101471.13;5135476;27;20080;-74
2023/09/04 00:26:04;;;;;;;10.57;4.82;;;;;;;22.48;100.00;101554.78;5134958;27;20470;-72
2023/09/04 00:28:29;;;;;;;13.57;4.68;;;;;;;21.99;100.00;101730.84;5117092;27;20126;-76
2023/09/04 00:30:56;;;;;;;9.68;4.97;;;;;;;22.38;100.00;102151.56;5134976;27;20026;-74
2023/09/04 00:33:22;;;;;;;5.90;4.10;;;;;;;22.49;100.00;102407.00;5116678;27;20126;-77
2023/09/04 00:35:47;;;;;;;6.05;4.47;;;;;;;22.36;100.00;103149.13;5134855;27;20034;-75
2023/09/04 00:38:12;;;;;;;5.97;4.10;;;;;;;21.68;100.00;104689.16;5135017;27;20019;-74
2023/09/04 00:40:38;;;;;;;7.88;4.28;;;;;;;22.05;100.00;104910.50;5134917;27;20114;-76
2023/09/04 00:43:03;;;;;;;6.28;4.03;;;;;;;21.55;100.00;104944.81;5134941;27;20030;-75
2023/09/04 00:45:29;;;;;;;6.80;4.18;;;;;;;21.97;100.00;105093.72;5135246;27;20023;-75
2023/09/04 00:47:55;;;;;;;5.97;3.80;;;;;;;21.88;100.00;105135.16;5116658;27;20035;-76
2023/09/04 00:50:25;;;;;;;5.10;3.95;;;;;;;21.45;100.00;105064.78;5134796;27;20079;-74
2023/09/04 00:52:54;;;;;;;5.27;4.30;;;;;;;22.02;100.00;105185.41;5116454;27;20038;-76
2023/09/04 00:55:20;;;;;;;7.93;4.32;;;;;;;21.75;100.00;105205.91;5135234;27;20035;-76
2023/09/04 00:57:47;;;;;;;4.68;4.00;;;;;;;21.67;100.00;105172.09;5134711;27;20043;-76
2023/09/04 01:00:13;;;;;;;4.63;4.13;;;;;;;21.72;100.00;105260.31;5116192;27;20042;-75
2023/09/04 01:02:40;;;;;;;5.22;3.90;;;;;;;21.47;100.00;105277.31;5134949;27;20031;-76
2023/09/04 01:05:06;;;;;;;4.50;3.97;;;;;;;21.74;100.00;105455.63;5135199;27;20031;-75
2023/09/04 01:07:33;;;;;;;7.63;3.67;;;;;;;21.54;100.00;105499.41;5134725;27;20031;-75
2023/09/04 01:09:59;;;;;;;7.18;4.43;;;;;;;21.65;100.00;105521.16;5116497;27;20076;-76
2023/09/04 01:12:33;;;;;;;5.07;4.03;;;;;;;21.66;100.00;105489.22;5134679;27;20027;-75
2023/09/04 01:15:02;;;;;;;5.00;3.80;;;;;;;21.73;100.00;105369.19;5116433;27;20027;-75
2023/09/04 01:17:29;;;;;;;5.82;4.30;;;;;;;21.86;100.00;105349.50;5134618;27;20027;-75
2023/09/04 01:19:55;;;;;;;4.72;3.80;;;;;;;21.42;100.00;104022.50;5115858;27;20035;-75
2023/09/04 01:22:20;;;;;;;5.65;4.03;;;;;;;21.55;100.00;103819.47;5134296;27;20391;-77
2023/09/04 01:24:46;;;;;;;6.03;4.18;;;;;;;21.90;100.00;103871.75;5133689;27;20023;-75
2023/09/04 01:27:45;;;;;;;6.18;4.05;;;;;;;21.89;100.00;103882.13;5115920;27;20023;-75
2023/09/04 01:30:21;;;;;;;5.15;3.92;;;;;;;21.96;100.00;103876.84;5115377;27;20122;-76
2023/09/04 01:32:55;;;;;;;5.53;3.92;;;;;;;21.38;100.00;103804.09;5134214;27;20023;-76
2023/09/04 01:35:22;;;;;;;5.45;3.80;;;;;;;21.40;100.00;103811.84;5134110;27;20030;-76
2023/09/04 01:37:47;;;;;;;4.68;3.38;;;;;;;21.54;100.00;103874.72;5134112;27;20042;-76
2023/09/04 01:40:13;;;;;;;5.20;3.70;;;;;;;21.41;100.00;103842.91;5133646;27;20027;-76
2023/09/04 01:42:38;;;;;;;5.38;3.33;;;;;;;21.87;100.00;103900.28;5133763;27;20386;-75
2023/09/04 01:45:05;;;;;;;6.38;3.38;;;;;;;21.24;100.00;103831.88;5134062;27;20096;-76
2023/09/04 01:47:30;;;;;;;5.68;3.90;;;;;;;21.53;100.00;103893.75;5133089;27;20027;-76
2023/09/04 01:49:57;;;;;;;3.88;3.47;;;;;;;21.99;100.00;103896.66;5134114;27;20019;-77
2023/09/04 01:52:22;;;;;;;6.05;3.83;;;;;;;21.40;100.00;103853.28;5132659;27;20042;-77
2023/09/04 01:54:48;;;;;;;4.97;3.60;;;;;;;21.18;100.00;103829.34;5134010;27;20397;-76
2023/09/04 01:57:13;;;;;;;6.65;3.50;;;;;;;21.71;100.00;103890.94;5115376;27;20424;-75
2023/09/04 01:59:38;;;;;;;3.95;3.05;;;;;;;21.68;100.00;103900.47;5133389;27;20468;-75
2023/09/04 02:02:04;;;;;;;5.53;3.58;;;;;;;21.54;100.00;103865.22;5133291;27;20091;-77
2023/09/04 02:04:31;;;;;;;6.45;3.33;;;;;;;21.58;100.00;103871.22;5133773;27;20110;-78
2023/09/04 02:06:58;;;;;;;5.38;3.33;;;;;;;21.89;100.00;103919.25;5133639;27;20118;-77
2023/09/04 02:09:24;;;;;;;3.63;3.05;;;;;;;21.73;100.00;103902.13;5133453;27;20030;-75
2023/09/04 02:11:49;;;;;;;5.05;3.20;;;;;;;21.20;100.00;103842.28;5133466;27;20023;-76
2023/09/04 02:14:15;;;;;;;4.07;3.15;;;;;;;22.07;100.00;104008.94;5132664;27;20035;-77
2023/09/04 02:16:40;;;;;;;4.10;3.35;;;;;;;21.70;100.00;104865.41;5133698;27;20055;-77
2023/09/04 02:19:06;;;;;;;6.85;3.33;;;;;;;21.59;100.00;104951.75;5133481;27;20447;-77
2023/09/04 02:21:32;;;;;;;4.35;3.13;;;;;;;21.36;100.00;104874.75;5133389;27;20031;-78
2023/09/04 02:23:58;;;;;;;3.97;3.40;;;;;;;21.63;100.00;104828.22;5115031;27;20470;-76
2023/09/04 02:26:23;;;;;;;5.30;2.80;;;;;;;21.52;100.00;104718.50;5133012;27;20038;-77
2023/09/04 02:28:48;;;;;;;3.40;2.70;;;;;;;21.36;100.00;104610.50;5125990;27;20045;-77
2023/09/04 02:31:14;;;;;;;3.50;2.83;;;;;;;21.74;100.00;104450.72;5150782;27;20042;-77
2023/09/04 02:33:39;;;;;;;3.08;2.28;;;;;;;21.92;100.00;104326.25;5161357;27;20023;-77
2023/09/04 02:36:05;;;;;;;4.00;2.50;;;;;;;21.49;100.00;104125.22;5140879;27;20057;-78
2023/09/04 02:38:30;;;;;;;3.65;2.80;;;;;;;22.03;100.00;104091.06;5153775;27;20030;-75
2023/09/04 02:40:56;;;;;;;3.10;2.65;;;;;;;21.96;100.00;103971.91;5153004;27;20058;-76
2023/09/04 02:43:21;;;;;;;3.17;2.72;;;;;;;21.37;100.00;103781.66;5152791;27;20122;-74
2023/09/04 02:45:47;;;;;;;4.28;2.60;;;;;;;21.77;100.00;103820.88;5152809;27;20091;-76
2023/09/04 02:48:13;;;;;;;4.00;2.70;;;;;;;21.75;100.00;103796.72;5153118;27;20079;-74
2023/09/04 02:50:40;;;;;;;5.93;2.75;;;;;;;21.65;100.00;103758.84;5153576;27;20027;-75
2023/09/04 02:53:06;;;;;;;2.70;2.45;;;;;;;21.69;100.00;103640.50;5153500;27;20026;-73
2023/09/04 02:55:31;;;;;;;2.75;2.20;;;;;;;21.73;100.00;103557.50;5153559;27;20072;-76
2023/09/04 02:57:57;;;;;;;3.80;2.10;;;;;;;22.02;100.00;103445.56;5134591;27;20424;-77
2023/09/04 03:00:22;;;;;;;2.88;2.20;;;;;;;22.12;100.00;103232.75;5154108;27;20022;-77
2023/09/04 03:02:50;;;;;;;2.53;2.10;;;;;;;21.29;100.00;102739.22;5138497;27;20408;-76
2023/09/04 03:05:16;;;;;;;2.47;2.05;;;;;;;21.83;100.00;102721.25;5160330;27;20048;-75
2023/09/04 03:07:41;;;;;;;2.90;2.08;;;;;;;21.76;100.00;102658.38;5142024;27;20030;-76
2023/09/04 03:10:07;;;;;;;2.03;1.83;;;;;;;21.33;100.00;102246.41;5160491;27;20087;-78
2023/09/04 03:12:33;;;;;;;3.28;2.00;;;;;;;21.84;100.00;102309.25;5160214;27;20409;-72
2023/09/04 03:15:07;;;;;;;5.38;2.45;;;;;;;21.39;100.00;102225.47;5142078;27;20096;-76
2023/09/04 03:17:33;;;;;;;2.53;2.30;;;;;;;21.39;100.00;102223.69;5160230;27;20481;-76
2023/09/04 03:20:00;;;;;;;3.85;2.30;;;;;;;21.47;100.00;102207.91;5160228;27;20114;-76
2023/09/04 03:22:26;;;;;;;3.72;2.10;;;;;;;21.83;100.00;102247.16;5157090;27;20076;-75
2023/09/04 03:24:53;;;;;;;2.40;1.95;;;;;;;21.42;100.00;102148.53;5159519;27;20083;-75
2023/09/04 03:27:18;;;;;;;4.28;2.40;;;;;;;21.66;100.00;102154.50;5160170;27;20484;-75
2023/09/04 03:29:44;;;;;;;4.28;2.40;;;;;;;21.81;100.00;102210.91;5159432;27;20033;-76
2023/09/04 03:32:10;;;;;;;3.15;2.30;;;;;;;21.45;100.00;102134.63;5155694;27;20401;-75
2023/09/04 03:34:39;;;;;;;2.60;2.40;;;;;;;21.81;100.00;102184.19;5147905;27;20521;-76
2023/09/04 03:37:05;;;;;;;3.25;2.13;;;;;;;21.80;100.00;102180.72;5145596;27;20039;-75
2023/09/04 03:39:37;;;;;;;3.08;2.50;;;;;;;21.58;100.00;102113.38;5147793;27;20035;-75
2023/09/04 03:42:06;;;;;;;2.75;2.47;;;;;;;21.70;100.00;102104.28;5159817;27;20033;-74
2023/09/04 03:44:32;;;;;;;3.35;2.35;;;;;;;21.89;100.00;102119.97;5158983;27;20035;-73
2023/09/04 03:46:57;;;;;;;4.47;2.53;;;;;;;22.15;100.00;102124.91;5141734;27;20512;-74
2023/09/04 03:49:23;;;;;;;2.20;2.00;;;;;;;21.82;100.00;102088.28;5136491;27;20042;-75
2023/09/04 03:51:48;;;;;;;4.50;2.00;;;;;;;21.89;100.00;102043.06;5137773;27;20034;-72
2023/09/04 03:54:13;;;;;;;5.32;2.42;;;;;;;21.60;100.00;101999.38;5135979;27;20034;-74
2023/09/04 03:56:39;;;;;;;3.60;1.95;;;;;;;21.58;100.00;102021.91;5137282;27;20505;-72
2023/09/04 03:59:04;;;;;;;2.50;1.90;;;;;;;21.58;100.00;101980.47;5131596;27;20047;-74
2023/09/04 04:01:31;;;;;;;4.30;2.55;;;;;;;21.69;100.00;102058.56;5117061;28;20059;-73
2023/09/04 04:03:57;;;;;;;3.35;2.35;;;;;;;21.85;100.00;102038.91;5116878;28;20027;-73
2023/09/04 04:06:25;;;;;;;4.38;2.22;;;;;;;22.07;100.00;102107.09;5117449;28;20035;-73
2023/09/04 04:08:51;;;;;;;3.05;2.50;;;;;;;22.15;100.00;102112.78;5099580;28;20035;-79
2023/09/04 04:11:19;;;;;;;4.40;2.47;;;;;;;21.65;100.00;102088.06;5117868;28;20032;-73
2023/09/04 04:13:44;;;;;;;8.60;2.78;;;;;;;21.97;100.00;102180.06;5115843;28;20032;-76
2023/09/04 04:16:10;;;;;;;5.22;2.70;;;;;;;20.71;100.00;102114.94;5114538;28;20053;-74
2023/09/04 04:18:36;;;;;;;6.60;3.17;;;;;;;21.21;100.00;102272.72;5114300;28;20473;-75
2023/09/04 04:21:02;;;;;;;10.68;4.00;;;;;;;21.40;100.00;102372.13;5116393;27;20038;-77
2023/09/04 04:23:27;;;;;;;7.22;4.00;;;;;;;21.43;100.00;102887.28;5120988;27;20031;-72
2023/09/04 04:25:53;;;;;;;5.90;4.13;;;;;;;21.08;100.00;103728.50;5135236;27;20030;-75
2023/09/04 04:28:21;;;;;;;4.25;3.42;;;;;;;20.87;100.00;104034.94;5135482;27;20054;-77
2023/09/04 04:30:47;;;;;;;5.93;3.25;;;;;;;21.05;100.00;104405.06;5135340;27;20119;-78
2023/09/04 04:33:12;;;;;;;3.10;2.80;;;;;;;21.04;100.00;105013.47;5134760;27;20066;-76
2023/09/04 04:35:41;;;;;;;2.92;2.50;;;;;;;20.64;100.00;105053.56;5134587;27;20122;-73
2023/09/04 04:38:07;;;;;;;3.80;2.78;;;;;;;21.18;100.00;105217.38;5111049;27;20038;-76
2023/09/04 04:40:33;;;;;;;5.50;2.80;;;;;;;20.83;100.00;105143.56;5116249;27;20031;-75
2023/09/04 04:42:58;;;;;;;7.57;3.40;;;;;;;22.33;100.00;105234.97;5134572;27;20029;-77
2023/09/04 04:45:24;;;;;;;4.60;3.05;;;;;;;21.03;100.00;103787.22;5117412;27;20035;-77
2023/09/04 04:47:49;;;;;;;2.78;2.42;;;;;;;20.60;100.00;103740.19;5116809;27;20023;-80
2023/09/04 04:50:15;;;;;;;2.65;2.30;;;;;;;20.68;100.00;103691.81;5116659;27;20532;-77
2023/09/04 04:52:40;;;;;;;3.42;2.63;;;;;;;20.16;100.00;103412.28;5115764;27;20031;-77
2023/09/04 04:55:07;;;;;;;2.47;2.28;;;;;;;20.30;100.00;102921.00;5135158;27;20031;-80
2023/09/04 04:57:36;;;;;;;2.92;2.03;;;;;;;20.06;100.00;102751.81;5135270;27;20059;-77
2023/09/04 05:00:07;;;;;;;2.42;1.98;;;;;;;20.53;100.00;102737.78;5116618;27;20039;-77
2023/09/04 05:02:33;;;;;;;2.65;2.15;;;;;;;20.57;100.00;102700.63;5134559;27;20027;-77
2023/09/04 05:04:59;;;;;;;2.67;2.10;;;;;;;19.94;100.00;102604.84;5134486;27;20038;-76
2023/09/04 05:07:24;;;;;;;3.80;2.00;;;;;;;20.48;100.00;102629.31;5134299;27;20024;-78
2023/09/04 05:09:53;;;;;;;3.20;2.08;;;;;;;20.79;100.00;102538.81;5135959;27;20032;-77
2023/09/04 05:12:18;;;;;;;3.47;2.15;;;;;;;20.38;100.00;102492.59;5116972;27;20031;-76
2023/09/04 05:14:44;;;;;;;2.20;1.92;;;;;;;20.57;100.00;102473.09;5116425;27;20038;-77
2023/09/04 05:17:09;;;;;;;3.28;2.03;;;;;;;20.53;100.00;102414.59;5116909;27;20023;-78
2023/09/04 05:19:35;;;;;;;2.65;2.10;;;;;;;20.88;100.00;102330.75;5134840;27;20035;-78
2023/09/04 05:22:00;;;;;;;2.80;1.90;;;;;;;20.72;100.00;102330.38;5134767;27;20031;-79
2023/09/04 05:24:25;;;;;;;4.30;2.15;;;;;;;20.80;100.00;102275.84;5116438;27;20023;-77
2023/09/04 05:26:51;;;;;;;4.13;2.60;;;;;;;20.36;100.00;102283.28;5116395;27;20084;-77
2023/09/04 05:29:16;;;;;;;2.78;2.08;;;;;;;20.81;100.00;102290.47;5116091;27;20039;-78
2023/09/04 05:31:41;;;;;;;2.60;2.30;;;;;;;20.88;100.00;102227.28;5116538;27;20031;-79
2023/09/04 05:34:07;;;;;;;2.70;2.25;;;;;;;20.40;100.00;101982.47;5134848;27;20031;-79
2023/09/04 05:36:32;;;;;;;3.30;2.28;;;;;;;20.34;100.00;101977.53;5115578;27;20034;-77
2023/09/04 05:38:58;;;;;;;2.90;2.30;;;;;;;20.27;100.00;101877.91;5115749;27;20031;-76
2023/09/04 05:41:24;;;;;;;2.92;2.25;;;;;;;20.27;100.00;101763.34;5116332;27;20469;-76
2023/09/04 05:43:49;;;;;;;2.35;2.15;;;;;;;20.41;100.00;101422.53;5116084;27;20066;-76
2023/09/04 05:46:14;;;;;;;3.25;2.30;;;;;;;20.00;100.00;101060.28;5115584;27;20060;-76
2023/09/04 05:48:40;;;;;;;2.50;2.10;;;;;;;19.96;100.00;100942.56;5133999;27;20035;-77
2023/09/04 05:51:05;;;;;;;3.22;2.40;;;;;;;20.21;100.00;100766.53;5144612;27;20031;-76
2023/09/04 05:53:31;;;;;;;5.68;2.47;;;;;;;20.28;100.00;100636.94;5140120;27;20038;-76
2023/09/04 05:56:09;;;;;;;4.65;2.35;;;;;;;20.03;100.00;100509.31;5140038;27;20019;-76
2023/09/04 05:58:42;;;;;;;2.50;2.22;;;;;;;19.92;100.00;100416.19;5134190;27;20075;-79
2023/09/04 06:01:08;;;;;;;3.47;2.67;;;;;;;19.99;100.00;100426.06;5133883;27;20481;-76
2023/09/04 06:03:33;;;;;;;3.28;2.20;;;;;;;19.80;100.00;100394.53;5115234;27;20084;-77
2023/09/04 06:05:59;;;;;;;2.58;2.38;;;;;;;20.30;100.00;100448.34;5133936;27;20080;-79
2023/09/04 06:08:24;;;;;;;4.20;2.45;;;;;;;20.15;100.00;100382.91;5133551;27;20060;-77
2023/09/04 06:10:50;;;;;;;2.97;2.20;;;;;;;20.20;100.00;100391.25;5133493;27;20551;-77
2023/09/04 06:13:16;;;;;;;3.40;2.47;;;;;;;20.01;100.00;100393.22;5134021;27;20079;-77
2023/09/04 06:15:42;;;;;;;2.80;2.50;;;;;;;20.40;100.00;100432.16;5133189;27;20062;-79
2023/09/04 06:18:07;;;;;;;3.30;2.40;;;;;;;20.18;100.00;100408.56;5133251;27;20059;-78
2023/09/04 06:20:34;;;;;;;2.70;2.30;;;;;;;19.99;100.00;100400.22;5133726;27;20031;-79
2023/09/04 06:23:01;;;;;;;2.70;2.40;;;;;;;20.44;100.00;100472.38;5115411;27;20062;-77
2023/09/04 06:25:27;;;;;;;2.60;2.03;;;;;;;19.87;100.00;100416.44;5133828;27;20038;-80
2023/09/04 06:27:52;;;;;;;4.35;2.42;;;;;;;20.38;100.00;100477.91;5133246;27;20035;-79
2023/09/04 06:30:18;;;;;;;3.25;2.55;;;;;;;20.15;100.00;100429.38;5133119;27;20031;-79
2023/09/04 06:32:43;;;;;;;2.40;2.20;;;;;;;20.51;100.00;100496.94;5133114;27;20110;-79
2023/09/04 06:35:09;;;;;;;3.20;2.55;;;;;;;20.28;100.00;100430.31;5114682;27;20122;-79
2023/09/04 06:37:35;;;;;;;5.13;2.92;;;;;;;20.65;100.00;100507.28;5132950;27;20030;-79
2023/09/04 06:40:00;;;;;;;2.90;2.60;;;;;;;20.31;100.00;100509.38;5132867;27;20031;-78
2023/09/04 06:42:26;;;;;;;3.80;2.80;;;;;;;20.45;100.00;100505.06;5132838;27;20175;-78
2023/09/04 06:44:51;;;;;;;3.70;2.75;;;;;;;20.56;100.00;100510.41;5114351;28;20042;-78
2023/09/04 06:47:16;;;;;;;4.35;2.80;;;;;;;20.55;100.00;100519.09;5114596;27;20176;-79
2023/09/04 06:49:42;;;;;;;4.13;2.97;;;;;;;20.18;100.00;100486.03;5114631;27;20027;-79
2023/09/04 06:52:07;;;;;;;3.00;2.70;;;;;;;20.54;100.00;100550.19;5132589;27;20096;-77
2023/09/04 06:54:33;;;;;;;3.80;2.83;;;;;;;20.60;100.00;100557.59;5114435;27;20024;-77
2023/09/04 06:56:58;;;;;;;3.75;3.10;;;;;;;20.90;100.00;100581.56;5132600;27;20050;-78
2023/09/04 06:59:24;;;;;;;3.75;2.97;;;;;;;20.86;100.00;100577.50;5132793;27;20090;-78
2023/09/04 07:01:50;;;;;;;3.63;3.08;;;;;;;20.46;100.00;100581.63;5114248;28;20040;-77
2023/09/04 07:04:15;;;;;;;3.67;3.05;;;;;;;20.78;100.00;100604.75;5132320;28;20130;-78
2023/09/04 07:06:40;;;;;;;3.33;2.90;;;;;;;20.28;100.00;100553.50;5132883;28;20031;-77
2023/09/04 07:09:06;;;;;;;4.10;3.03;;;;;;;20.81;100.00;100589.06;5132815;28;20023;-76
2023/09/04 07:11:31;;;;;;;4.07;2.90;;;;;;;20.56;100.00;100595.69;5114973;28;20031;-76
2023/09/04 07:13:57;;;;;;;3.60;2.67;;;;;;;20.76;100.00;100616.94;5114203;28;20512;-77
2023/09/04 07:16:22;;;;;;;3.67;2.85;;;;;;;20.64;100.00;100565.03;5114386;28;20023;-76
2023/09/04 07:18:48;;;;;;;3.67;2.80;;;;;;;20.64;100.00;100623.66;5113834;28;20479;-77
2023/09/04 07:21:13;;;;;;;3.13;2.70;;;;;;;20.54;100.00;100583.78;5114682;28;20043;-78
2023/09/04 07:23:38;;;;;;;2.80;2.50;;;;;;;20.54;100.00;100648.41;5114419;28;20572;-78
2023/09/04 07:26:04;;;;;;;4.85;2.80;;;;;;;20.83;100.00;100662.19;5132553;28;20080;-79
2023/09/04 07:28:29;;;;;;;4.50;2.47;;;;;;;20.75;100.00;100657.47;5114912;28;20405;-79
2023/09/04 07:31:12;;;;;;;3.15;2.85;;;;;;;20.89;100.00;100675.59;5132777;28;20486;-77
2023/09/04 07:33:38;;;;;;;5.43;3.05;;;;;;;20.52;100.00;100665.75;5133037;28;20034;-77
2023/09/04 07:36:04;;;;;;;4.03;3.35;;;;;;;20.55;100.00;100681.06;5132950;28;20033;-77
2023/09/04 07:38:31;;;;;;;4.00;3.00;;;;;;;20.62;100.00;100662.50;5114158;28;20030;-76
2023/09/04 07:41:03;;;;;;;3.75;3.20;;;;;;;20.17;100.00;100646.19;5115041;28;20500;-77
2023/09/04 07:43:33;;;;;;;3.17;2.80;;;;;;;20.86;100.00;100721.47;5102119;28;20020;-76
2023/09/04 07:46:00;;;;;;;4.22;3.00;;;;;;;20.79;100.00;100759.75;5109127;28;20043;-76
2023/09/04 07:48:25;;;;;;;3.72;3.03;;;;;;;20.35;100.00;100699.44;5094106;28;20106;-77
2023/09/04 07:50:54;;;;;;;3.30;3.00;;;;;;;20.57;100.00;100770.50;5097592;28;20526;-77
2023/09/04 07:53:20;;;;;;;4.78;3.10;;;;;;;20.15;100.00;100748.75;5098000;28;20051;-77
2023/09/04 07:55:47;;;;;;;4.40;3.30;;;;;;;20.50;100.00;100810.50;5115644;28;20036;-76
2023/09/04 07:58:12;;;;;;;4.25;3.35;;;;;;;20.22;100.00;100765.63;5097259;28;20074;-78
2023/09/04 08:00:46;;;;;;;4.18;3.03;;;;;;;20.40;100.00;100837.75;5115445;28;20055;-76
2023/09/04 08:03:11;;;;;;;4.25;3.00;;;;;;;20.51;100.00;100857.84;5115855;28;20027;-76
2023/09/04 08:05:37;;;;;;;4.40;3.30;;;;;;;20.66;100.00;100860.44;5115526;28;20034;-76
2023/09/04 08:08:07;;;;;;;5.72;3.95;;;;;;;20.44;100.00;100870.28;5115824;28;20092;-77
2023/09/04 08:10:34;;;;;;;5.60;4.18;;;;;;;19.98;100.00;100788.41;5097381;28;20027;-76
2023/09/04 08:12:59;;;;;;;4.05;3.35;;;;;;;20.33;100.00;100862.28;5097312;28;20028;-76
2023/09/04 08:15:26;;;;;;;3.45;3.03;;;;;;;20.29;100.00;100854.75;5115735;28;20073;-76
2023/09/04 08:17:51;;;;;;;4.32;3.53;;;;;;;20.33;100.00;100889.84;5115020;28;20031;-76
2023/09/04 08:20:17;;;;;;;6.78;3.88;;;;;;;20.02;100.00;100828.66;5115191;28;20033;-76
2023/09/04 08:22:43;;;;;;;3.53;3.22;;;;;;;20.44;100.00;100872.03;5096685;28;20059;-75
2023/09/04 08:25:08;;;;;;;4.70;3.55;;;;;;;19.96;100.00;100771.34;5114421;28;20118;-75
2023/09/04 08:27:34;;;;;;;4.10;3.65;;;;;;;20.54;100.00;100737.06;5096748;28;20023;-76
2023/09/04 08:29:59;;;;;;;5.97;3.97;;;;;;;20.09;100.00;100666.47;5114587;28;20043;-76
2023/09/04 08:32:24;;;;;;;5.85;3.60;;;;;;;20.53;100.00;100719.91;5096677;28;20015;-77
2023/09/04 08:34:50;;;;;;;4.20;3.80;;;;;;;20.17;100.00;100709.03;5113452;28;20122;-76
2023/09/04 08:37:15;;;;;;;5.95;3.53;;;;;;;20.61;100.00;100697.03;5114586;28;20064;-76
2023/09/04 08:39:41;;;;;;;4.57;3.88;;;;;;;20.35;100.00;100682.19;5114387;28;20039;-76
2023/09/04 08:42:09;;;;;;;4.15;3.83;;;;;;;20.01;100.00;100617.00;5113139;28;20162;-76
2023/09/04 08:44:36;;;;;;;4.38;3.97;;;;;;;19.81;100.00;100561.34;5113375;28;20118;-77
2023/09/04 08:47:03;;;;;;;4.95;4.32;;;;;;;20.24;100.00;100593.31;5114971;28;20106;-76
2023/09/04 08:49:28;;;;;;;6.03;4.50;;;;;;;20.56;100.00;100641.38;5114694;28;20027;-77
2023/09/04 08:51:55;;;;;;;5.55;4.20;;;;;;;20.53;100.00;100620.88;5115235;28;20539;-77
2023/09/04 08:54:21;;;;;;;5.28;4.78;;;;;;;20.93;100.00;100661.56;5114220;28;20066;-77
2023/09/04 08:56:47;;;;;;;5.63;4.63;;;;;;;20.49;100.00;100664.16;5114510;28;20127;-77
2023/09/04 08:59:14;;;;;;;6.82;4.53;;;;;;;20.29;100.00;100581.81;5096262;28;20514;-77
2023/09/04 09:01:42;;;;;;;8.27;5.50;;;;;;;20.80;100.00;100644.28;5120349;27;20172;-76
2023/09/04 09:04:08;;;;;;;6.53;4.80;;;;;;;20.74;100.00;100629.94;5133719;27;20528;-77
2023/09/04 09:06:36;;;;;;;5.32;4.88;;;;;;;20.80;100.00;100602.91;5116974;27;20023;-77
2023/09/04 09:09:03;;;;;;;6.13;4.95;;;;;;;21.51;100.00;100674.41;5140176;27;20082;-77
2023/09/04 09:11:29;;;;;;;5.18;4.78;;;;;;;21.17;100.00;100639.41;5155293;27;20069;-76
2023/09/04 09:13:54;;;;;;;5.65;5.00;;;;;;;21.03;100.00;100629.06;5145061;27;20039;-77
2023/09/04 09:16:21;;;;;;;5.30;4.80;;;;;;;21.15;100.00;100610.22;5116103;27;20035;-77
2023/09/04 09:18:48;;;;;;;5.30;4.72;;;;;;;21.73;100.00;100679.88;5116394;27;20031;-75
2023/09/04 09:21:21;;;;;;;4.75;4.35;;;;;;;21.92;100.00;100680.44;5115486;27;20038;-73
2023/09/04 09:23:48;;;;;;;5.35;4.43;;;;;;;21.41;100.00;100666.34;5133893;27;20063;-74
2023/09/04 09:26:14;;;;;;;5.30;4.80;;;;;;;21.64;100.00;100672.69;5116185;27;20031;-75
2023/09/04 09:28:42;;;;;;;5.13;4.47;;;;;;;20.99;100.00;100575.84;5134079;27;20523;-73
2023/09/04 09:31:08;;;;;;;4.32;3.92;;;;;;;21.30;100.00;100673.09;5115945;27;20027;-74
2023/09/04 09:33:34;;;;;;;4.55;4.15;;;;;;;21.76;100.00;100679.72;5115724;27;20440;-76
2023/09/04 09:35:59;;;;;;;5.50;4.30;;;;;;;21.34;100.00;100631.44;5115829;27;20023;-73
2023/09/04 09:38:25;;;;;;;4.38;3.97;;;;;;;21.52;100.00;100661.34;5132789;27;20027;-71
2023/09/04 09:40:50;;;;;;;4.28;3.88;;;;;;;21.23;100.00;100648.56;5133670;27;20031;-72
2023/09/04 09:43:16;;;;;;;4.32;3.90;;;;;;;21.20;100.00;100659.91;5113406;27;20076;-76
2023/09/04 09:45:41;;;;;;;4.75;4.00;;;;;;;21.59;100.00;100664.38;5115101;27;20493;-74
2023/09/04 09:48:07;;;;;;;4.90;4.25;;;;;;;21.82;100.00;100657.81;5114803;27;20108;-73
2023/09/04 09:50:37;;;;;;;5.03;4.28;;;;;;;21.33;100.00;100616.03;5114971;27;20499;-74
2023/09/04 09:53:03;;;;;;;5.88;4.13;;;;;;;21.69;100.00;100662.06;5114599;27;20092;-75
2023/09/04 09:55:31;;;;;;;3.90;3.60;;;;;;;21.52;100.00;100656.19;5115555;27;20118;-75
2023/09/04 09:57:58;;;;;;;3.85;3.45;;;;;;;21.70;100.00;100653.34;5133135;27;20027;-75
2023/09/04 10:00:25;;;;;;;3.67;3.38;;;;;;;21.56;100.00;100630.94;5115169;27;20046;-75
2023/09/04 10:02:50;;;;;;;4.05;3.25;;;;;;;21.47;100.00;100580.56;5115378;27;20043;-74
2023/09/04 10:05:16;;;;;;;4.03;3.50;;;;;;;21.41;100.00;100549.09;5115008;27;20019;-74
2023/09/04 10:07:46;;;;;;;3.95;3.53;;;;;;;21.75;100.00;100604.72;5114580;27;20099;-75
2023/09/04 10:10:14;;;;;;;3.67;3.30;;;;;;;22.08;100.00;100612.94;5114538;27;20080;-74
2023/09/04 10:12:51;;;;;;;3.60;3.28;;;;;;;22.25;100.00;100586.72;5113435;27;20028;-75
2023/09/04 10:15:23;;;;;;;3.45;3.15;;;;;;;22.04;100.00;100552.72;5114545;27;20114;-75
2023/09/04 10:18:05;;;;;;;3.60;3.20;;;;;;;23.59;100.00;100665.63;5114443;27;20027;-75
2023/09/04 10:20:33;;;;;;;3.33;3.00;;;;;;;24.21;100.00;100678.50;5133051;27;20472;-74
2023/09/04 10:22:58;;;;;;;3.42;3.13;;;;;;;24.34;100.00;100624.69;5114361;27;20039;-74
2023/09/04 10:26:21;;;;;;;3.00;2.80;;;;;;;24.61;100.00;100633.84;5114771;27;20080;-74
2023/09/04 10:29:03;;;;;;;4.43;3.05;;;;;;;24.37;100.00;100559.44;5029776;28;20042;-75
2023/09/04 10:31:31;;;;;;;3.28;2.85;;;;;;;24.39;100.00;100528.97;5029707;28;20025;-75
2023/09/04 10:33:58;;;;;;;2.60;2.40;;;;;;;24.65;100.00;100543.41;5073075;27;20042;-75
2023/09/04 10:36:25;;;;;;;3.15;2.30;;;;;;;25.90;100.00;100564.59;5115028;27;20020;-76
2023/09/04 10:38:50;;;;;;;3.63;2.60;;;;;;;25.27;100.00;100583.59;5132784;27;20031;-76
2023/09/04 10:41:17;;;;;;;3.08;2.35;;;;;;;25.41;100.00;100613.78;5132843;27;20485;-75
2023/09/04 10:43:43;;;;;;;3.20;2.35;;;;;;;25.11;100.00;100707.28;5114158;27;20019;-75
2023/09/04 10:46:11;;;;;;;2.50;2.17;;;;;;;24.99;100.00;100995.34;5114323;28;20114;-74
2023/09/04 10:48:43;;;;;;;3.42;2.08;;;;;;;24.56;100.00;101256.81;5114269;27;20034;-75
2023/09/04 10:51:25;;;;;;;3.58;2.03;;;;;;;24.75;100.00;101593.81;5114444;27;20101;-74
2023/09/04 10:53:51;;;;;;;3.25;2.10;;;;;;;24.98;100.00;101975.09;5132823;27;20163;-74
2023/09/04 10:56:16;;;;;;;3.28;2.10;;;;;;;25.55;100.00;103220.31;5114059;28;20089;-75
2023/09/04 10:59:02;;;;;;;2.20;2.00;;;;;;;25.19;100.00;103417.13;5114407;28;20139;-75
2023/09/04 11:01:32;;;;;;;2.55;1.90;;;;;;;25.14;100.00;103489.34;5133079;27;20047;-75
2023/09/04 11:04:00;;;;;;;2.30;2.10;;;;;;;25.28;100.00;103595.75;5114622;28;20095;-75
2023/09/04 11:06:26;;;;;;;2.35;2.15;;;;;;;25.82;100.00;103677.47;5132544;28;20031;-75
2023/09/04 11:08:51;;;;;;;2.25;1.90;;;;;;;25.34;100.00;103640.72;5132779;28;20420;-75
2023/09/04 11:11:24;;;;;;;4.32;2.45;;;;;;;25.63;100.00;103752.81;5114369;28;20073;-75
2023/09/04 11:14:01;;;;;;;2.15;1.90;;;;;;;25.73;100.00;103762.06;5114450;28;20034;-75
2023/09/04 11:16:32;;;;;;;3.30;2.10;;;;;;;25.82;100.00;103744.44;5114166;28;20164;-75